Time;durP1;ratioP1;P1;durP2;ratioP2;P2;SDS_P1;SDS_P2;PMS_P1;PMS_P2;Temp;Humidity;BMP_temperature;BMP_pressure;BME280_temperature;BME280_humidity;BME280_pressure;Samples;Min_cycle;Max_cycle;Signal;HPM_P1;HPM_P2
2022/02/18 00:00:54;;;;;;;9.63;2.93;;;7.80;99.90;;;;;;6220292;23;20832;-84
2022/02/18 00:03:23;;;;;;;13.97;3.23;;;7.90;99.90;;;;;;6247209;22;20411;-83
2022/02/18 00:05:59;;;;;;;;;;;;;;;;;;;;;
2022/02/18 00:08:31;;;;;;;8.33;2.97;;;7.80;99.90;;;;;;6254346;22;20362;-84
2022/02/18 00:10:57;;;;;;;12.77;3.00;;;7.70;99.90;;;;;;6224574;22;20411;-84
2022/02/18 00:13:28;;;;;;;10.97;2.90;;;7.60;99.90;;;;;;6223306;22;20389;-84
2022/02/18 00:15:53;;;;;;;15.63;3.20;;;7.60;99.90;;;;;;6251370;22;20184;-84
2022/02/18 00:18:19;;;;;;;19.03;3.20;;;7.70;99.90;;;;;;6222525;22;20393;-84
2022/02/18 00:20:45;;;;;;;14.27;3.70;;;7.70;99.90;;;;;;6252555;22;20576;-84
2022/02/18 00:23:12;;;;;;;14.63;4.07;;;7.70;99.90;;;;;;6249977;22;20148;-84
2022/02/18 00:25:41;;;;;;;14.77;3.50;;;7.80;99.90;;;;;;6251678;22;20556;-84
2022/02/18 00:28:17;;;;;;;15.00;3.77;;;7.80;99.90;;;;;;6223386;22;20390;-84
2022/02/18 00:30:43;;;;;;;10.90;2.87;;;7.80;99.90;;;;;;6224370;22;20416;-84
2022/02/18 00:33:10;;;;;;;11.13;3.23;;;7.80;99.90;;;;;;6223692;22;20421;-85
2022/02/18 00:35:36;;;;;;;14.13;3.63;;;7.80;99.90;;;;;;6254036;22;20393;-85
2022/02/18 00:38:02;;;;;;;14.53;3.00;;;7.70;99.90;;;;;;6250531;22;20381;-84
2022/02/18 00:40:30;;;;;;;12.20;3.13;;;7.70;99.90;;;;;;6247160;22;20150;-85
2022/02/18 00:42:59;;;;;;;12.47;3.77;;;7.70;99.90;;;;;;6246688;22;20424;-84
2022/02/18 00:45:25;;;;;;;16.90;4.10;;;7.70;99.90;;;;;;6249089;22;20437;-84
2022/02/18 00:47:51;;;;;;;8.63;2.73;;;7.80;99.90;;;;;;6219422;22;20450;-84
2022/02/18 00:50:24;;;;;;;17.53;4.97;;;7.80;99.90;;;;;;6222779;22;21276;-84
2022/02/18 00:52:50;;;;;;;11.20;2.90;;;7.80;99.90;;;;;;6221310;22;20388;-84
2022/02/18 00:55:16;;;;;;;8.97;2.40;;;7.80;99.90;;;;;;6250154;22;20635;-84
2022/02/18 00:57:42;;;;;;;14.20;3.33;;;7.80;99.90;;;;;;6224177;22;20389;-85
2022/02/18 01:00:10;;;;;;;9.60;2.87;;;7.80;99.90;;;;;;6223002;22;20399;-85
2022/02/18 01:02:39;;;;;;;10.57;2.63;;;7.80;99.90;;;;;;6249253;22;20162;-85
2022/02/18 01:05:20;;;;;;;12.07;2.47;;;7.80;99.90;;;;;;6221023;22;20470;-84
2022/02/18 01:07:48;;;;;;;15.77;3.40;;;7.80;99.90;;;;;;6248426;22;20762;-84
2022/02/18 01:10:16;;;;;;;13.53;3.50;;;7.80;99.90;;;;;;6224232;22;20392;-84
2022/02/18 01:12:44;;;;;;;11.80;3.90;;;7.90;99.90;;;;;;6225844;22;20930;-85
2022/02/18 01:15:11;;;;;;;16.37;3.10;;;7.90;99.90;;;;;;6250041;22;20378;-84
2022/02/18 01:17:37;;;;;;;9.63;2.73;;;7.90;99.90;;;;;;6250101;22;20385;-84
2022/02/18 01:20:03;;;;;;;10.70;2.90;;;7.80;99.90;;;;;;6252397;22;20380;-85
2022/02/18 01:22:35;;;;;;;10.57;2.60;;;7.80;99.90;;;;;;6219257;22;20393;-84
2022/02/18 01:25:00;;;;;;;16.47;3.00;;;7.90;99.90;;;;;;6227935;22;20857;-84
2022/02/18 01:27:26;;;;;;;9.87;2.50;;;7.90;99.90;;;;;;6227501;22;20386;-85
2022/02/18 01:29:52;;;;;;;8.50;2.67;;;7.90;99.90;;;;;;6221933;22;20646;-85
2022/02/18 01:32:18;;;;;;;7.40;3.50;;;7.90;99.90;;;;;;6222349;22;20160;-85
2022/02/18 01:34:46;;;;;;;14.47;2.77;;;8.00;99.90;;;;;;6219853;22;20162;-85
2022/02/18 01:37:14;;;;;;;10.93;3.00;;;8.00;99.90;;;;;;6220540;22;20163;-86
2022/02/18 01:39:40;;;;;;;9.83;4.07;;;8.00;99.90;;;;;;6221902;22;20423;-86
2022/02/18 01:42:06;;;;;;;13.83;3.00;;;8.00;99.90;;;;;;6251047;22;20472;-85
2022/02/18 01:44:46;;;;;;;16.80;3.13;;;8.00;99.90;;;;;;6223471;22;20445;-85
2022/02/18 01:47:13;;;;;;;7.20;2.33;;;8.00;99.90;;;;;;6246817;22;20239;-85
2022/02/18 01:49:42;;;;;;;11.50;2.83;;;8.00;99.90;;;;;;6220895;22;21046;-85
2022/02/18 01:52:09;;;;;;;12.47;3.30;;;7.90;99.90;;;;;;6220750;22;20948;-85
2022/02/18 01:54:34;;;;;;;9.03;3.27;;;7.90;99.90;;;;;;6247812;22;20488;-84
2022/02/18 01:57:01;;;;;;;11.90;3.03;;;7.90;99.90;;;;;;6223296;22;20478;-85
2022/02/18 01:59:28;;;;;;;13.23;2.70;;;7.90;99.90;;;;;;6220414;22;20232;-85
2022/02/18 02:02:02;;;;;;;11.60;2.77;;;7.80;99.90;;;;;;6249174;22;20788;-84
2022/02/18 02:04:29;;;;;;;9.40;2.63;;;7.70;99.90;;;;;;6224282;22;20490;-85
2022/02/18 02:07:02;;;;;;;10.13;3.33;;;7.70;99.90;;;;;;6246982;22;20373;-84
2022/02/18 02:09:31;;;;;;;10.30;3.27;;;7.80;99.90;;;;;;6223307;22;20384;-84
2022/02/18 02:12:24;;;;;;;13.70;3.50;;;7.80;99.90;;;;;;6251960;22;20422;-85
2022/02/18 02:14:57;;;;;;;10.67;3.70;;;7.80;99.90;;;;;;6222556;22;20498;-85
2022/02/18 02:17:23;;;;;;;10.93;2.77;;;7.90;99.90;;;;;;6224076;22;20410;-85
2022/02/18 02:19:49;;;;;;;9.33;2.80;;;7.90;99.90;;;;;;6251521;22;20452;-85
2022/02/18 02:22:31;;;;;;;6.50;2.30;;;7.90;99.90;;;;;;6223966;22;20154;-85
2022/02/18 02:25:00;;;;;;;10.27;3.10;;;8.00;99.90;;;;;;6246298;22;20447;-85
2022/02/18 02:27:28;;;;;;;12.40;2.60;;;8.00;99.90;;;;;;6222327;22;20410;-85
2022/02/18 02:29:56;;;;;;;12.63;2.77;;;7.90;99.90;;;;;;6219625;22;20397;-85
2022/02/18 02:32:31;;;;;;;7.10;2.73;;;7.90;99.90;;;;;;6219884;22;20444;-85
2022/02/18 02:35:00;;;;;;;10.50;2.37;;;7.90;99.90;;;;;;6224739;22;20387;-85
2022/02/18 02:37:28;;;;;;;11.97;3.73;;;7.90;99.90;;;;;;6250228;22;20932;-85
2022/02/18 02:39:57;;;;;;;14.73;2.90;;;7.90;99.90;;;;;;6227169;22;20395;-85
2022/02/18 02:42:23;;;;;;;7.30;2.30;;;7.90;99.90;;;;;;6223445;22;20864;-85
2022/02/18 02:44:51;;;;;;;6.33;2.53;;;7.90;99.90;;;;;;6252202;22;20427;-85
2022/02/18 02:47:28;;;;;;;11.67;2.70;;;8.00;99.90;;;;;;6221078;23;20198;-85
2022/02/18 02:50:04;;;;;;;;;;;;;;;;;;;;;
2022/02/18 02:52:35;;;;;;;10.47;2.67;;;8.00;99.90;;;;;;6220819;23;20965;-85
2022/02/18 02:55:05;;;;;;;10.07;2.50;;;8.00;99.90;;;;;;6222953;23;20390;-85
2022/02/18 02:57:40;;;;;;;;;;;;;;;;;;;;;
2022/02/18 03:00:07;;;;;;;11.50;2.73;;;7.90;99.90;;;;;;6233788;23;20844;-84
2022/02/18 03:02:33;;;;;;;9.87;2.83;;;7.90;99.90;;;;;;6189205;23;20786;-85
2022/02/18 03:05:01;;;;;;;8.33;2.57;;;8.00;99.90;;;;;;6188789;23;20437;-85
2022/02/18 03:07:35;;;;;;;8.53;2.50;;;8.00;99.90;;;;;;6189299;23;20165;-85
2022/02/18 03:10:02;;;;;;;8.00;2.23;;;7.90;99.90;;;;;;6189507;23;20590;-84
2022/02/18 03:12:28;;;;;;;15.67;2.30;;;8.00;99.90;;;;;;6188037;23;20948;-85
2022/02/18 03:14:54;;;;;;;10.37;2.67;;;8.00;99.90;;;;;;6192424;23;20372;-85
2022/02/18 03:17:20;;;;;;;7.57;2.27;;;8.00;99.90;;;;;;6189112;23;20653;-85
2022/02/18 03:19:45;;;;;;;9.23;2.60;;;8.00;99.90;;;;;;6189639;23;20202;-85
2022/02/18 03:22:11;;;;;;;11.47;2.60;;;8.00;99.90;;;;;;6186495;23;20975;-85
2022/02/18 03:24:37;;;;;;;9.97;2.07;;;8.00;99.90;;;;;;6187145;23;20684;-85
2022/02/18 03:27:03;;;;;;;7.93;2.60;;;8.10;99.90;;;;;;6189809;23;20864;-85
2022/02/18 03:29:29;;;;;;;13.60;4.60;;;8.00;99.90;;;;;;6189278;23;20383;-85
2022/02/18 03:31:55;;;;;;;9.90;2.70;;;8.10;99.90;;;;;;6190550;23;20762;-85
2022/02/18 03:34:21;;;;;;;9.00;2.67;;;8.10;99.90;;;;;;6188989;23;20234;-85
2022/02/18 03:36:49;;;;;;;7.40;2.33;;;8.10;99.90;;;;;;6188487;23;20173;-84
2022/02/18 03:39:15;;;;;;;7.77;2.17;;;8.10;99.90;;;;;;6188631;23;20390;-84
2022/02/18 03:41:41;;;;;;;10.23;3.73;;;8.20;99.90;;;;;;6188843;23;20679;-84
2022/02/18 03:44:07;;;;;;;8.33;3.03;;;8.20;99.90;;;;;;6186527;23;20291;-85
2022/02/18 03:46:39;;;;;;;5.37;2.03;;;8.20;99.90;;;;;;6192652;23;20707;-85
2022/02/18 03:49:10;;;;;;;10.73;2.60;;;8.20;99.90;;;;;;6189376;23;20379;-85
2022/02/18 03:51:35;;;;;;;10.07;2.30;;;8.20;99.90;;;;;;6191183;23;20360;-85
2022/02/18 03:54:01;;;;;;;10.07;2.80;;;8.20;99.90;;;;;;6189204;23;20404;-85
2022/02/18 03:56:27;;;;;;;8.80;2.23;;;8.20;99.90;;;;;;6188153;23;20500;-84
2022/02/18 03:58:52;;;;;;;15.43;2.50;;;8.30;99.90;;;;;;6189466;23;20155;-85
2022/02/18 04:01:18;;;;;;;8.60;2.40;;;8.30;99.90;;;;;;6191682;23;20595;-85
2022/02/18 04:03:44;;;;;;;15.23;2.73;;;8.30;99.90;;;;;;6218682;23;20203;-85
2022/02/18 04:06:11;;;;;;;5.33;1.90;;;8.20;99.90;;;;;;6219434;23;20257;-85
2022/02/18 04:08:36;;;;;;;13.60;2.87;;;8.20;99.90;;;;;;6219878;23;20377;-85
2022/02/18 04:11:04;;;;;;;13.50;2.70;;;8.20;99.90;;;;;;6220846;23;20884;-86
2022/02/18 04:13:41;;;;;;;5.60;2.07;;;8.10;99.90;;;;;;6222474;23;20212;-85
2022/02/18 04:16:07;;;;;;;8.70;2.50;;;8.10;99.90;;;;;;6199219;23;20416;-85
2022/02/18 04:18:32;;;;;;;9.67;2.20;;;8.10;99.90;;;;;;6198240;23;20561;-85
2022/02/18 04:20:58;;;;;;;9.87;2.43;;;8.10;99.90;;;;;;6199331;23;20680;-84
2022/02/18 04:23:26;;;;;;;8.80;2.50;;;8.10;99.90;;;;;;6199025;23;20159;-84
2022/02/18 04:25:51;;;;;;;5.80;2.27;;;8.10;99.90;;;;;;6224436;23;20182;-85
2022/02/18 04:28:17;;;;;;;10.20;2.13;;;8.10;99.90;;;;;;6192740;23;20396;-85
2022/02/18 04:30:43;;;;;;;16.17;2.43;;;8.10;99.90;;;;;;6217470;23;20518;-85
2022/02/18 04:33:11;;;;;;;10.27;2.27;;;8.10;99.90;;;;;;6222511;23;20161;-84
2022/02/18 04:35:37;;;;;;;5.00;1.83;;;8.20;99.90;;;;;;6217881;23;20567;-85
2022/02/18 04:38:02;;;;;;;9.60;2.13;;;8.20;99.90;;;;;;6193071;23;20382;-84
2022/02/18 04:40:28;;;;;;;7.70;2.10;;;8.30;99.90;;;;;;6217942;23;20166;-85
2022/02/18 04:42:54;;;;;;;9.10;2.37;;;8.30;99.90;;;;;;6221485;23;20151;-84
2022/02/18 04:45:24;;;;;;;8.10;2.47;;;8.20;99.90;;;;;;6223005;23;20505;-84
2022/02/18 04:47:57;;;;;;;9.10;2.07;;;8.20;99.90;;;;;;6219001;23;20653;-85
2022/02/18 04:50:22;;;;;;;11.20;2.50;;;8.10;99.90;;;;;;6192100;23;20694;-85
2022/02/18 04:52:51;;;;;;;9.97;3.53;;;8.20;99.90;;;;;;6194600;23;20395;-85
2022/02/18 04:55:17;;;;;;;12.83;3.13;;;8.20;99.90;;;;;;6191877;23;20550;-85
2022/02/18 04:57:47;;;;;;;8.50;2.40;;;8.20;99.90;;;;;;6218137;23;20382;-85
2022/02/18 05:00:39;;;;;;;9.93;2.63;;;8.20;99.90;;;;;;6218765;23;20155;-87
2022/02/18 05:03:14;;;;;;;9.37;2.40;;;8.10;99.90;;;;;;6224512;23;20422;-88
2022/02/18 05:06:33;;;;;;;8.80;3.07;;;8.20;99.90;;;;;;6220872;23;20448;-86
2022/02/18 05:09:28;;;;;;;7.97;2.10;;;8.10;99.90;;;;;;6073176;23;20419;-87
2022/02/18 05:13:11;;;;;;;;;;;;;;;;;;;;;
2022/02/18 05:15:08;;;;;;;7.73;1.93;;;8.20;99.90;;;;;;6175640;23;20446;-87
2022/02/18 05:17:48;;;;;;;7.50;2.20;;;8.20;99.90;;;;;;6188682;23;20395;-86
2022/02/18 05:20:57;;;;;;;;;;;;;;;;;;;;;
2022/02/18 05:23:33;;;;;;;7.57;3.00;;;8.20;99.90;;;;;;6184895;23;20891;-86
2022/02/18 05:25:59;;;;;;;7.43;2.10;;;8.30;99.90;;;;;;6186416;23;20759;-86
2022/02/18 05:28:30;;;;;;;8.30;2.43;;;8.30;99.90;;;;;;6186141;23;20383;-86
2022/02/18 05:31:12;;;;;;;7.77;2.50;;;8.30;99.90;;;;;;6185195;23;20229;-86
2022/02/18 05:34:14;;;;;;;;;;;;;;;;;;;;;
2022/02/18 05:37:12;;;;;;;;;;;;;;;;;;;;;
2022/02/18 05:40:27;;;;;;;11.60;2.90;;;8.40;99.90;;;;;;6191275;23;21076;-87
2022/02/18 05:43:48;;;;;;;11.40;3.87;;;8.40;99.90;;;;;;6191580;23;20383;-87
2022/02/18 05:46:48;;;;;;;10.83;3.10;;;8.30;99.90;;;;;;6096581;23;20855;-88
2022/02/18 05:49:21;;;;;;;13.37;2.87;;;8.30;99.90;;;;;;6144418;23;20391;-86
2022/02/18 05:51:59;;;;;;;;;;;;;;;;;;;;;
2022/02/18 05:54:58;;;;;;;9.60;2.47;;;8.40;99.90;;;;;;6190235;23;20375;-86
2022/02/18 05:58:21;;;;;;;;;;;;;;;;;;;;;
2022/02/18 06:00:53;;;;;;;5.90;2.60;;;8.40;99.90;;;;;;6123091;23;20412;-89
2022/02/18 06:03:19;;;;;;;9.57;2.60;;;8.40;99.90;;;;;;6187250;23;20401;-89
2022/02/18 06:05:50;;;;;;;10.13;2.73;;;8.30;99.90;;;;;;6190190;23;20445;-87
2022/02/18 06:08:31;;;;;;;;;;;;;;;;;;;;;
2022/02/18 06:11:00;;;;;;;12.17;2.93;;;8.30;99.90;;;;;;6212172;23;20408;-89
2022/02/18 06:13:34;;;;;;;7.57;2.70;;;8.40;99.90;;;;;;6190297;23;20969;-87
2022/02/18 06:16:10;;;;;;;7.40;2.87;;;8.40;99.90;;;;;;6211287;23;20814;-86
2022/02/18 06:18:36;;;;;;;12.20;2.73;;;8.40;99.90;;;;;;6179275;23;20392;-86
2022/02/18 06:21:04;;;;;;;16.50;2.60;;;8.50;99.90;;;;;;6184376;23;20415;-86
2022/02/18 06:23:32;;;;;;;11.00;2.30;;;8.60;99.90;;;;;;6210248;23;20477;-86
2022/02/18 06:25:58;;;;;;;7.37;2.33;;;8.50;99.90;;;;;;6212074;23;20468;-86
2022/02/18 06:28:26;;;;;;;7.37;2.60;;;8.60;99.90;;;;;;6210770;23;20390;-87
2022/02/18 06:30:52;;;;;;;9.43;5.23;;;8.60;99.90;;;;;;6212966;23;20158;-88
2022/02/18 06:33:20;;;;;;;11.70;5.30;;;8.60;99.90;;;;;;6212368;23;20751;-87
2022/02/18 06:36:01;;;;;;;8.83;3.03;;;8.70;99.90;;;;;;6214317;23;20448;-87
2022/02/18 06:38:44;;;;;;;;;;;;;;;;;;;;;
2022/02/18 06:41:24;;;;;;;11.23;2.63;;;8.70;99.90;;;;;;6217253;23;20388;-86
2022/02/18 06:44:00;;;;;;;8.70;2.30;;;8.70;99.90;;;;;;6189356;23;20635;-86
2022/02/18 06:46:56;;;;;;;9.10;2.40;;;8.60;99.90;;;;;;6212283;23;20377;-87
2022/02/18 06:49:37;;;;;;;7.83;2.40;;;8.60;99.90;;;;;;6184202;23;20447;-86
2022/02/18 06:52:11;;;;;;;10.13;2.80;;;8.70;99.90;;;;;;6214459;23;20919;-88
2022/02/18 06:54:37;;;;;;;6.90;2.33;;;8.70;99.90;;;;;;6187873;23;20474;-85
2022/02/18 06:57:41;;;;;;;6.43;2.10;;;8.70;99.90;;;;;;6215157;23;20492;-85
2022/02/18 07:00:51;;;;;;;7.50;2.27;;;8.70;99.90;;;;;;6071663;23;20196;-85
2022/02/18 07:09:49;;;;;;;13.20;2.97;;;8.80;99.90;;;;;;6237739;22;20812;-83
2022/02/18 07:12:45;;;;;;;5.73;2.43;;;8.90;99.90;;;;;;6219613;22;20388;-84
2022/02/18 07:15:14;;;;;;;9.00;2.50;;;8.90;99.90;;;;;;6249851;22;20968;-84
2022/02/18 07:18:05;;;;;;;7.30;2.93;;;9.00;99.90;;;;;;6224997;22;20429;-84
2022/02/18 07:21:44;;;;;;;;;;;;;;;;;;;;;
2022/02/18 07:24:15;;;;;;;9.93;3.03;;;9.00;99.90;;;;;;6181816;23;20378;-85
2022/02/18 07:30:26;;;;;;;12.30;3.47;;;9.00;99.90;;;;;;6038310;23;20394;-85
2022/02/18 07:40:23;;;;;;;9.47;3.17;;;9.00;99.90;;;;;;6183847;23;20367;-86
2022/02/18 07:46:51;;;;;;;;;;;;;;;;;;;;;
2022/02/18 07:49:39;;;;;;;9.23;3.33;;;9.00;99.90;;;;;;6252372;22;20762;-84
2022/02/18 07:52:43;;;;;;;;;;;;;;;;;;;;;
2022/02/18 07:55:34;;;;;;;12.70;3.30;;;9.10;99.90;;;;;;6252032;22;20699;-85
2022/02/18 07:59:05;;;;;;;7.63;2.80;;;9.20;99.90;;;;;;6247062;22;20852;-86
2022/02/18 08:02:06;;;;;;;11.00;2.37;;;9.20;99.90;;;;;;6127565;23;20393;-86
2022/02/18 08:05:23;;;;;;;10.93;2.83;;;9.20;99.90;;;;;;6127418;23;20868;-87
2022/02/18 08:13:31;;;;;;;7.90;2.70;;;9.50;99.90;;;;;;6205764;22;20465;-86
2022/02/18 08:16:00;;;;;;;11.43;2.70;;;9.50;99.90;;;;;;6152950;23;20409;-85
2022/02/18 08:18:28;;;;;;;10.40;2.87;;;9.50;99.90;;;;;;6186391;23;20396;-86
2022/02/18 08:20:56;;;;;;;9.83;3.37;;;9.50;99.90;;;;;;6186202;23;20505;-86
2022/02/18 08:23:22;;;;;;;6.50;2.87;;;9.50;99.90;;;;;;6185726;23;20846;-88
2022/02/18 08:26:21;;;;;;;;;;;;;;;;;;;;;
2022/02/18 08:32:23;;;;;;;7.20;2.87;;;9.60;99.90;;;;;;6212078;23;20484;-84
2022/02/18 08:35:35;;;;;;;11.13;3.40;;;9.80;99.90;;;;;;6184075;23;20418;-87
2022/02/18 08:38:10;;;;;;;6.17;2.63;;;9.90;99.90;;;;;;6213925;22;20401;-86
2022/02/18 08:40:38;;;;;;;6.90;2.53;;;10.10;99.90;;;;;;6191188;23;20385;-85
2022/02/18 08:43:06;;;;;;;6.30;2.30;;;10.30;99.90;;;;;;6186988;23;20452;-85
2022/02/18 08:45:32;;;;;;;5.67;3.43;;;10.40;99.90;;;;;;6184453;23;20441;-85
2022/02/18 08:48:03;;;;;;;4.97;2.40;;;10.50;99.90;;;;;;6184940;23;20386;-84
2022/02/18 08:50:47;;;;;;;7.20;2.77;;;10.60;99.90;;;;;;6187117;23;20182;-86
2022/02/18 08:53:40;;;;;;;;;;;;;;;;;;;;;
2022/02/18 08:56:12;;;;;;;4.87;2.10;;;10.90;99.90;;;;;;6218303;23;20380;-86
2022/02/18 09:01:47;;;;;;;4.00;1.90;;;11.10;99.90;;;;;;6219278;23;20374;-85
2022/02/18 09:04:23;;;;;;;3.23;1.80;;;11.20;99.90;;;;;;6189964;23;20429;-85
2022/02/18 09:06:59;;;;;;;5.50;1.80;;;11.30;99.90;;;;;;6189251;23;20939;-85
2022/02/18 09:09:35;;;;;;;4.80;1.77;;;11.50;99.90;;;;;;6190838;23;20452;-85
2022/02/18 09:12:33;;;;;;;2.47;1.50;;;11.50;99.90;;;;;;6197928;23;20414;-86
2022/02/18 09:15:10;;;;;;;;;;;;;;;;;;;;;
2022/02/18 09:17:51;;;;;;;3.20;1.33;;;11.80;99.90;;;;;;6214754;23;20390;-85
2022/02/18 09:20:49;;;;;;;2.60;1.37;;;11.90;99.90;;;;;;6184085;23;20840;-85
2022/02/18 09:29:03;;;;;;;2.27;1.43;;;12.00;99.90;;;;;;6222710;23;20893;-85
2022/02/18 09:32:09;;;;;;;;;;;;;;;;;;;;;
2022/02/18 09:35:20;;;;;;;6.20;3.20;;;12.10;99.90;;;;;;6211874;23;20391;-86
2022/02/18 09:37:53;;;;;;;1.80;1.10;;;12.20;99.90;;;;;;6189517;23;20718;-86
2022/02/18 09:40:24;;;;;;;3.27;1.60;;;12.20;99.90;;;;;;6187986;23;20412;-85
2022/02/18 09:43:00;;;;;;;4.73;1.70;;;12.20;99.90;;;;;;6161771;23;20394;-85
2022/02/18 09:45:59;;;;;;;1.27;1.10;;;12.30;99.90;;;;;;6184752;23;20433;-85
2022/02/18 09:48:31;;;;;;;2.53;1.00;;;12.50;99.90;;;;;;6186073;23;20390;-84
2022/02/18 09:50:57;;;;;;;1.70;1.33;;;12.60;99.90;;;;;;6187389;23;20434;-85
2022/02/18 09:53:22;;;;;;;1.80;1.43;;;12.70;99.90;;;;;;6187576;23;20806;-84
2022/02/18 09:56:02;;;;;;;3.50;1.20;;;12.80;99.90;;;;;;6187890;23;20501;-85
2022/02/18 09:58:54;;;;;;;2.37;1.20;;;13.10;99.90;;;;;;6168236;23;20410;-86
2022/02/18 10:02:06;;;;;;;3.30;1.43;;;13.40;99.90;;;;;;6211748;23;20416;-86
2022/02/18 10:07:32;;;;;;;;;;;;;;;;;;;;;
2022/02/18 10:10:18;;;;;;;1.43;1.00;;;14.00;99.90;;;;;;6215076;23;20385;-85
2022/02/18 10:12:46;;;;;;;3.83;1.30;;;14.10;99.90;;;;;;6184257;23;20402;-86
2022/02/18 10:15:14;;;;;;;1.63;1.10;;;13.90;99.90;;;;;;6179598;23;20860;-86
2022/02/18 10:18:07;;;;;;;1.63;0.90;;;14.20;99.90;;;;;;6177669;23;20403;-85
2022/02/18 10:20:43;;;;;;;3.27;1.07;;;14.50;99.90;;;;;;6179047;23;20743;-86
2022/02/18 10:23:10;;;;;;;2.07;0.70;;;15.10;99.90;;;;;;6179253;23;20431;-86
2022/02/18 10:26:02;;;;;;;1.20;1.07;;;15.10;99.90;;;;;;6183071;23;20473;-85
2022/02/18 10:28:32;;;;;;;1.47;0.80;;;15.00;99.90;;;;;;6181961;23;20481;-86
2022/02/18 10:31:09;;;;;;;1.57;0.70;;;14.90;99.90;;;;;;6183359;23;20754;-86
2022/02/18 10:33:37;;;;;;;0.90;0.83;;;14.90;99.90;;;;;;6181307;23;20434;-86
2022/02/18 10:36:15;;;;;;;2.40;1.07;;;15.10;99.90;;;;;;6181394;23;20399;-86
2022/02/18 10:38:47;;;;;;;1.40;0.80;;;15.60;99.90;;;;;;6180965;23;20518;-85
2022/02/18 10:41:26;;;;;;;1.60;0.67;;;15.80;99.90;;;;;;6183171;23;20702;-86
2022/02/18 10:43:55;;;;;;;2.87;1.20;;;15.60;99.90;;;;;;6189243;23;20534;-86
2022/02/18 10:46:45;;;;;;;1.33;0.80;;;15.70;99.90;;;;;;6179194;23;20465;-86
2022/02/18 10:49:41;;;;;;;1.37;0.80;;;15.30;99.90;;;;;;6186417;23;20386;-86
2022/02/18 10:52:18;;;;;;;1.23;0.70;;;15.20;99.90;;;;;;6185668;22;20452;-86
2022/02/18 10:54:46;;;;;;;1.73;1.00;;;15.60;99.90;;;;;;6184954;23;20430;-86
2022/02/18 10:57:14;;;;;;;2.17;1.33;;;16.10;99.90;;;;;;6181352;23;20454;-86
2022/02/18 10:59:46;;;;;;;4.40;1.00;;;16.40;99.40;;;;;;6184642;23;20408;-86
2022/02/18 11:02:16;;;;;;;4.00;1.10;;;16.40;99.20;;;;;;6180821;23;20871;-86
2022/02/18 11:04:41;;;;;;;3.37;0.80;;;16.20;98.90;;;;;;6182824;23;20443;-86
2022/02/18 11:07:26;;;;;;;2.60;0.70;;;16.30;98.90;;;;;;6177194;23;20603;-88
2022/02/18 11:10:31;;;;;;;2.93;0.90;;;16.50;99.10;;;;;;6181800;23;20168;-86
2022/02/18 11:13:24;;;;;;;0.90;0.70;;;16.80;98.30;;;;;;6195422;23;21262;-86
2022/02/18 11:16:14;;;;;;;2.80;1.10;;;16.60;98.40;;;;;;6218217;23;20781;-85
2022/02/18 11:18:41;;;;;;;2.50;1.30;;;16.60;98.40;;;;;;6188425;23;20386;-85
2022/02/18 11:21:11;;;;;;;1.90;0.80;;;16.40;98.50;;;;;;6187314;23;20753;-85
2022/02/18 11:23:43;;;;;;;1.50;1.10;;;16.20;98.90;;;;;;6187852;23;20439;-87
2022/02/18 11:26:14;;;;;;;3.43;0.80;;;16.10;99.10;;;;;;6213638;23;20864;-86
2022/02/18 11:28:42;;;;;;;4.63;1.17;;;15.90;99.00;;;;;;6187618;23;20707;-85
2022/02/18 11:31:18;;;;;;;1.43;0.80;;;15.80;99.60;;;;;;6192166;23;20812;-86
2022/02/18 11:33:52;;;;;;;2.93;0.70;;;16.00;99.30;;;;;;6191079;23;20400;-87
2022/02/18 11:36:21;;;;;;;3.00;0.80;;;16.30;98.40;;;;;;6189221;23;20440;-86
2022/02/18 11:39:16;;;;;;;4.53;1.03;;;16.50;97.50;;;;;;6186342;23;20392;-85
2022/02/18 11:42:14;;;;;;;1.80;0.90;;;16.60;97.40;;;;;;6192397;23;20775;-86
2022/02/18 11:44:44;;;;;;;3.70;0.80;;;16.30;97.30;;;;;;6189259;23;20448;-86
2022/02/18 11:47:13;;;;;;;2.00;0.90;;;16.30;97.70;;;;;;6192655;23;20434;-85
2022/02/18 11:49:46;;;;;;;1.27;1.17;;;16.50;98.00;;;;;;6187377;23;20402;-85
2022/02/18 11:52:41;;;;;;;3.83;0.63;;;16.80;97.70;;;;;;6180047;23;20459;-87
2022/02/18 11:55:40;;;;;;;3.77;0.97;;;16.60;97.00;;;;;;6189507;23;20801;-87
2022/02/18 11:58:13;;;;;;;4.73;0.90;;;16.30;97.20;;;;;;6190408;23;20394;-86
2022/02/18 12:01:00;;;;;;;1.60;0.70;;;16.40;97.20;;;;;;6189388;23;20429;-86
2022/02/18 12:03:32;;;;;;;1.97;0.80;;;16.80;96.70;;;;;;6190939;23;20871;-86
2022/02/18 12:06:27;;;;;;;;;;;;;;;;;;;;;
2022/02/18 12:08:57;;;;;;;1.77;0.80;;;17.00;96.20;;;;;;6213280;23;20872;-86
2022/02/18 12:14:46;;;;;;;3.23;1.20;;;17.30;95.70;;;;;;6218959;23;20890;-86
2022/02/18 12:20:37;;;;;;;2.20;0.90;;;17.40;95.80;;;;;;6214583;23;20454;-85
2022/02/18 12:26:47;;;;;;;4.20;0.80;;;17.20;95.70;;;;;;6225129;23;20519;-86
2022/02/18 12:29:35;;;;;;;3.63;0.90;;;16.80;96.30;;;;;;6215136;22;20378;-86
2022/02/18 12:32:25;;;;;;;2.67;0.63;;;16.60;96.50;;;;;;6191020;23;20400;-86
2022/02/18 12:35:08;;;;;;;5.80;1.50;;;16.60;96.30;;;;;;6189140;23;20482;-86
2022/02/18 12:37:37;;;;;;;3.87;1.10;;;16.60;96.50;;;;;;6190709;23;20896;-86
2022/02/18 12:40:27;;;;;;;2.23;0.60;;;17.00;95.90;;;;;;6187559;23;20378;-86
2022/02/18 12:43:17;;;;;;;3.90;1.00;;;17.20;95.70;;;;;;6219646;23;20370;-85
2022/02/18 12:45:53;;;;;;;1.80;0.80;;;17.60;95.00;;;;;;6189504;23;20853;-86
2022/02/18 12:49:00;;;;;;;2.57;0.97;;;17.50;95.10;;;;;;6188501;23;20378;-87
2022/02/18 12:51:28;;;;;;;1.30;0.83;;;17.60;94.70;;;;;;6184902;23;20414;-88
2022/02/18 12:57:25;;;;;;;1.67;0.97;;;16.90;94.70;;;;;;6237255;22;20998;-86
2022/02/18 13:03:41;;;;;;;;;;;;;;;;;;;;;
2022/02/18 13:09:06;;;;;;;2.87;0.97;;;16.40;95.40;;;;;;6244515;22;20385;-85
2022/02/18 13:11:40;;;;;;;2.50;1.00;;;16.30;94.90;;;;;;6213973;22;20384;-86
2022/02/18 13:14:53;;;;;;;;;;;;;;;;;;;;;
2022/02/18 13:17:33;;;;;;;1.67;0.90;;;16.40;94.90;;;;;;6251076;22;20531;-86
2022/02/18 13:20:17;;;;;;;;;;;;;;;;;;;;;
2022/02/18 13:22:45;;;;;;;8.23;1.77;;;16.50;95.00;;;;;;6247148;22;20540;-86
2022/02/18 13:31:21;;;;;;;3.80;1.20;;;16.50;95.20;;;;;;6247624;22;20534;-87
2022/02/18 13:34:13;;;;;;;2.93;0.87;;;16.40;94.60;;;;;;6218526;22;20488;-87
2022/02/18 13:36:55;;;;;;;;;;;;;;;;;;;;;
2022/02/18 13:39:30;;;;;;;5.07;1.23;;;16.20;94.90;;;;;;6249207;22;20368;-86
2022/02/18 13:42:15;;;;;;;;;;;;;;;;;;;;;
2022/02/18 13:45:11;;;;;;;2.80;0.77;;;16.10;95.80;;;;;;6250962;22;20428;-86
2022/02/18 13:48:01;;;;;;;6.67;1.10;;;16.00;95.80;;;;;;6222657;22;20384;-85
2022/02/18 13:50:27;;;;;;;2.27;1.10;;;16.00;95.60;;;;;;6221889;22;20554;-84
2022/02/18 13:53:03;;;;;;;3.30;0.83;;;16.00;95.90;;;;;;6223190;22;20393;-84
2022/02/18 13:55:38;;;;;;;3.07;1.10;;;15.90;95.70;;;;;;6223217;22;20832;-84
2022/02/18 13:58:38;;;;;;;;;;;;;;;;;;;;;
2022/02/18 14:01:25;;;;;;;3.03;1.43;;;15.80;95.60;;;;;;6250329;22;20373;-86
2022/02/18 14:04:12;;;;;;;7.67;1.53;;;15.80;95.40;;;;;;6222297;22;20400;-87
2022/02/18 14:06:46;;;;;;;5.17;1.03;;;15.80;95.70;;;;;;6221473;22;20409;-87
2022/02/18 14:10:14;;;;;;;3.20;0.93;;;15.70;95.90;;;;;;6243711;22;20764;-87
2022/02/18 14:12:56;;;;;;;2.60;0.90;;;15.70;95.80;;;;;;6220751;22;20420;-87
2022/02/18 14:15:27;;;;;;;3.33;1.20;;;15.70;95.90;;;;;;6221837;22;20393;-86
2022/02/18 14:18:22;;;;;;;2.30;0.90;;;15.70;96.00;;;;;;6221312;22;20388;-86
2022/02/18 14:21:08;;;;;;;3.20;0.90;;;15.60;95.80;;;;;;6245828;22;20516;-87
2022/02/18 14:23:38;;;;;;;1.70;1.00;;;15.60;96.00;;;;;;6221182;22;20431;-87
2022/02/18 14:26:27;;;;;;;5.70;0.90;;;15.50;95.90;;;;;;6243491;22;20456;-86
2022/02/18 14:28:54;;;;;;;3.97;1.20;;;15.50;95.90;;;;;;6222162;22;20826;-86
2022/02/18 14:31:26;;;;;;;2.20;1.30;;;15.60;95.90;;;;;;6218814;22;20392;-87
2022/02/18 14:33:57;;;;;;;1.60;1.00;;;15.60;95.80;;;;;;6221012;22;20374;-86
2022/02/18 14:36:40;;;;;;;5.23;1.20;;;15.60;96.40;;;;;;6216526;22;20674;-86
2022/02/18 14:39:11;;;;;;;3.73;1.40;;;15.70;95.90;;;;;;6216780;22;20388;-87
2022/02/18 14:42:00;;;;;;;2.83;1.23;;;15.80;96.00;;;;;;6220029;22;20423;-87
2022/02/18 14:44:50;;;;;;;2.13;1.20;;;15.90;95.80;;;;;;6216411;22;20454;-85
2022/02/18 14:47:17;;;;;;;1.57;1.17;;;15.80;95.60;;;;;;6217201;22;20417;-86
2022/02/18 14:49:44;;;;;;;2.80;1.20;;;15.80;96.00;;;;;;6216080;22;20396;-87
2022/02/18 14:52:13;;;;;;;1.60;0.80;;;15.90;96.00;;;;;;6220814;22;20927;-87
2022/02/18 14:54:44;;;;;;;2.13;1.30;;;15.80;95.80;;;;;;6217157;22;20411;-87
2022/02/18 14:57:18;;;;;;;3.07;0.93;;;15.80;96.00;;;;;;6247136;22;20396;-87
2022/02/18 14:59:44;;;;;;;3.30;1.13;;;15.80;96.40;;;;;;6239300;22;20441;-87
2022/02/18 15:02:10;;;;;;;1.10;0.80;;;15.70;96.20;;;;;;6221043;22;20392;-87
2022/02/18 15:04:37;;;;;;;3.13;2.43;;;15.80;96.10;;;;;;6208423;22;20445;-87
2022/02/18 15:07:03;;;;;;;1.97;1.00;;;15.80;95.90;;;;;;6221258;22;20181;-87
2022/02/18 15:09:29;;;;;;;5.17;1.27;;;16.00;96.10;;;;;;6219374;22;20393;-86
2022/02/18 15:11:55;;;;;;;1.90;1.30;;;16.30;95.80;;;;;;6217123;22;20387;-87
2022/02/18 15:14:22;;;;;;;1.93;1.20;;;16.80;95.30;;;;;;6217270;22;20397;-86
2022/02/18 15:16:48;;;;;;;4.93;1.70;;;17.10;94.40;;;;;;6223007;22;20180;-85